<?xml version="1.0" encoding="UTF-8" standalone="no" ?>
<gpx xmlns="http://www.topografix.com/GPX/1/1" xmlns:xsi="http://www.w3.org/2001/XMLSchema-instance" xsi:schemaLocation="http://www.topografix.com/GPX/1/1 http://www.topografix.com/GPX/1/1/gpx.xsd" version="1.1" creator="VisuGPX - https://www.visugpx.com">
  <metadata>
    <name>Valcroissant / Chatillon-en-Diois</name>
    <desc><![CDATA[Sur les pas des Huguenots - Etape Valcroissant / Chatillon-en-Diois]]></desc>
  </metadata>
  <trk>
    <name><![CDATA[7 Valcroissant-Chatillon-MNT]]></name>
    <trkseg>
      <trkpt lat="44.74159" lon="5.42467">
        <ele>622</ele>
        <time>2011-08-20T17:29:21Z</time>
      </trkpt>
      <trkpt lat="44.74175" lon="5.42489">
        <ele>613</ele>
        <time>2011-08-20T17:29:30Z</time>
      </trkpt>
      <trkpt lat="44.74193" lon="5.42506">
        <ele>609</ele>
        <time>2011-08-20T17:29:38Z</time>
      </trkpt>
      <trkpt lat="44.74201" lon="5.4255">
        <ele>610</ele>
        <time>2011-08-20T17:29:51Z</time>
      </trkpt>
      <trkpt lat="44.74201" lon="5.42527">
        <ele>610</ele>
        <time>2011-08-20T17:29:58Z</time>
      </trkpt>
      <trkpt lat="44.74191" lon="5.42562">
        <ele>610</ele>
        <time>2011-08-20T17:30:08Z</time>
      </trkpt>
      <trkpt lat="44.74181" lon="5.42579">
        <ele>612</ele>
        <time>2011-08-20T17:30:15Z</time>
      </trkpt>
      <trkpt lat="44.74181" lon="5.42638">
        <ele>613</ele>
        <time>2011-08-20T17:30:32Z</time>
      </trkpt>
      <trkpt lat="44.74159" lon="5.42711">
        <ele>632</ele>
        <time>2011-08-20T17:30:54Z</time>
      </trkpt>
      <trkpt lat="44.74132" lon="5.42799">
        <ele>636</ele>
        <time>2011-08-20T17:31:21Z</time>
      </trkpt>
      <trkpt lat="44.74117" lon="5.4285">
        <ele>637</ele>
        <time>2011-08-20T17:31:37Z</time>
      </trkpt>
      <trkpt lat="44.74109" lon="5.4285">
        <ele>639</ele>
        <time>2011-08-20T17:31:40Z</time>
      </trkpt>
      <trkpt lat="44.74106" lon="5.42807">
        <ele>641</ele>
        <time>2011-08-20T17:31:52Z</time>
      </trkpt>
      <trkpt lat="44.74101" lon="5.42794">
        <ele>641</ele>
        <time>2011-08-20T17:31:56Z</time>
      </trkpt>
      <trkpt lat="44.74092" lon="5.42834">
        <ele>647</ele>
        <time>2011-08-20T17:32:08Z</time>
      </trkpt>
      <trkpt lat="44.74073" lon="5.4292">
        <ele>645</ele>
        <time>2011-08-20T17:32:34Z</time>
      </trkpt>
      <trkpt lat="44.74054" lon="5.42941">
        <ele>648</ele>
        <time>2011-08-20T17:32:44Z</time>
      </trkpt>
      <trkpt lat="44.74019" lon="5.42966">
        <ele>651</ele>
        <time>2011-08-20T17:33:00Z</time>
      </trkpt>
      <trkpt lat="44.74005" lon="5.42963">
        <ele>652</ele>
        <time>2011-08-20T17:33:05Z</time>
      </trkpt>
      <trkpt lat="44.73994" lon="5.42953">
        <ele>665</ele>
        <time>2011-08-20T17:33:11Z</time>
      </trkpt>
      <trkpt lat="44.73983" lon="5.42943">
        <ele>666</ele>
        <time>2011-08-20T17:33:16Z</time>
      </trkpt>
      <trkpt lat="44.73957" lon="5.42949">
        <ele>669</ele>
        <time>2011-08-20T17:33:26Z</time>
      </trkpt>
      <trkpt lat="44.73925" lon="5.42973">
        <ele>670</ele>
        <time>2011-08-20T17:33:41Z</time>
      </trkpt>
      <trkpt lat="44.73881" lon="5.43031">
        <ele>676</ele>
        <time>2011-08-20T17:34:05Z</time>
      </trkpt>
      <trkpt lat="44.73865" lon="5.4305">
        <ele>676</ele>
        <time>2011-08-20T17:34:13Z</time>
      </trkpt>
      <trkpt lat="44.73845" lon="5.43064">
        <ele>677</ele>
        <time>2011-08-20T17:34:22Z</time>
      </trkpt>
      <trkpt lat="44.73782" lon="5.43073">
        <ele>691</ele>
        <time>2011-08-20T17:34:48Z</time>
      </trkpt>
      <trkpt lat="44.73757" lon="5.43088">
        <ele>688</ele>
        <time>2011-08-20T17:34:58Z</time>
      </trkpt>
      <trkpt lat="44.73738" lon="5.43087">
        <ele>693</ele>
        <time>2011-08-20T17:35:06Z</time>
      </trkpt>
      <trkpt lat="44.73704" lon="5.43092">
        <ele>697</ele>
        <time>2011-08-20T17:35:20Z</time>
      </trkpt>
      <trkpt lat="44.73668" lon="5.43088">
        <ele>706</ele>
        <time>2011-08-20T17:35:34Z</time>
      </trkpt>
      <trkpt lat="44.73638" lon="5.43105">
        <ele>713</ele>
        <time>2011-08-20T17:35:47Z</time>
      </trkpt>
      <trkpt lat="44.73616" lon="5.43112">
        <ele>716</ele>
        <time>2011-08-20T17:35:56Z</time>
      </trkpt>
      <trkpt lat="44.73565" lon="5.43164">
        <ele>726</ele>
        <time>2011-08-20T17:36:22Z</time>
      </trkpt>
      <trkpt lat="44.73504" lon="5.4321">
        <ele>726</ele>
        <time>2011-08-20T17:36:49Z</time>
      </trkpt>
      <trkpt lat="44.73485" lon="5.43219">
        <ele>739</ele>
        <time>2011-08-20T17:36:57Z</time>
      </trkpt>
      <trkpt lat="44.73415" lon="5.4324">
        <ele>756</ele>
        <time>2011-08-20T17:37:26Z</time>
      </trkpt>
      <trkpt lat="44.73404" lon="5.4325">
        <ele>756</ele>
        <time>2011-08-20T17:37:31Z</time>
      </trkpt>
      <trkpt lat="44.73393" lon="5.43246">
        <ele>761</ele>
        <time>2011-08-20T17:37:35Z</time>
      </trkpt>
      <trkpt lat="44.73384" lon="5.43214">
        <ele>764</ele>
        <time>2011-08-20T17:37:45Z</time>
      </trkpt>
      <trkpt lat="44.7334" lon="5.43228">
        <ele>770</ele>
        <time>2011-08-20T17:38:03Z</time>
      </trkpt>
      <trkpt lat="44.73308" lon="5.43276">
        <ele>788</ele>
        <time>2011-08-20T17:38:22Z</time>
      </trkpt>
      <trkpt lat="44.73283" lon="5.43349">
        <ele>793</ele>
        <time>2011-08-20T17:38:45Z</time>
      </trkpt>
      <trkpt lat="44.73267" lon="5.43381">
        <ele>796</ele>
        <time>2011-08-20T17:38:56Z</time>
      </trkpt>
      <trkpt lat="44.73249" lon="5.43404">
        <ele>817</ele>
        <time>2011-08-20T17:39:06Z</time>
      </trkpt>
      <trkpt lat="44.73235" lon="5.43416">
        <ele>819</ele>
        <time>2011-08-20T17:39:13Z</time>
      </trkpt>
      <trkpt lat="44.73221" lon="5.43497">
        <ele>821</ele>
        <time>2011-08-20T17:39:36Z</time>
      </trkpt>
      <trkpt lat="44.73211" lon="5.43507">
        <ele>820</ele>
        <time>2011-08-20T17:39:41Z</time>
      </trkpt>
      <trkpt lat="44.73184" lon="5.43512">
        <ele>826</ele>
        <time>2011-08-20T17:39:52Z</time>
      </trkpt>
      <trkpt lat="44.7317" lon="5.43527">
        <ele>826</ele>
        <time>2011-08-20T17:39:59Z</time>
      </trkpt>
      <trkpt lat="44.73163" lon="5.43565">
        <ele>836</ele>
        <time>2011-08-20T17:40:11Z</time>
      </trkpt>
      <trkpt lat="44.73152" lon="5.4359">
        <ele>833</ele>
        <time>2011-08-20T17:40:19Z</time>
      </trkpt>
      <trkpt lat="44.73142" lon="5.4362">
        <ele>835</ele>
        <time>2011-08-20T17:40:28Z</time>
      </trkpt>
      <trkpt lat="44.73134" lon="5.43616">
        <ele>836</ele>
        <time>2011-08-20T17:40:32Z</time>
      </trkpt>
      <trkpt lat="44.73124" lon="5.43597">
        <ele>838</ele>
        <time>2011-08-20T17:40:38Z</time>
      </trkpt>
      <trkpt lat="44.73118" lon="5.43582">
        <ele>843</ele>
        <time>2011-08-20T17:40:43Z</time>
      </trkpt>
      <trkpt lat="44.73106" lon="5.43578">
        <ele>846</ele>
        <time>2011-08-20T17:40:48Z</time>
      </trkpt>
      <trkpt lat="44.73083" lon="5.43595">
        <ele>853</ele>
        <time>2011-08-20T17:40:59Z</time>
      </trkpt>
      <trkpt lat="44.73058" lon="5.43632">
        <ele>855</ele>
        <time>2011-08-20T17:41:13Z</time>
      </trkpt>
      <trkpt lat="44.73052" lon="5.43667">
        <ele>852</ele>
        <time>2011-08-20T17:41:23Z</time>
      </trkpt>
      <trkpt lat="44.73049" lon="5.43685">
        <ele>852</ele>
        <time>2011-08-20T17:41:29Z</time>
      </trkpt>
      <trkpt lat="44.73038" lon="5.43693">
        <ele>853</ele>
        <time>2011-08-20T17:41:34Z</time>
      </trkpt>
      <trkpt lat="44.73034" lon="5.43714">
        <ele>852</ele>
        <time>2011-08-20T17:41:40Z</time>
      </trkpt>
      <trkpt lat="44.73046" lon="5.43768">
        <ele>849</ele>
        <time>2011-08-20T17:41:56Z</time>
      </trkpt>
      <trkpt lat="44.73041" lon="5.43783">
        <ele>848</ele>
        <time>2011-08-20T17:42:00Z</time>
      </trkpt>
      <trkpt lat="44.73021" lon="5.43785">
        <ele>848</ele>
        <time>2011-08-20T17:42:08Z</time>
      </trkpt>
      <trkpt lat="44.73013" lon="5.43777">
        <ele>848</ele>
        <time>2011-08-20T17:42:12Z</time>
      </trkpt>
      <trkpt lat="44.73004" lon="5.43765">
        <ele>849</ele>
        <time>2011-08-20T17:42:17Z</time>
      </trkpt>
      <trkpt lat="44.72957" lon="5.43757">
        <ele>840</ele>
        <time>2011-08-20T17:42:36Z</time>
      </trkpt>
      <trkpt lat="44.72913" lon="5.4376">
        <ele>841</ele>
        <time>2011-08-20T17:42:53Z</time>
      </trkpt>
      <trkpt lat="44.72892" lon="5.43792">
        <ele>837</ele>
        <time>2011-08-20T17:43:06Z</time>
      </trkpt>
      <trkpt lat="44.72883" lon="5.43833">
        <ele>821</ele>
        <time>2011-08-20T17:43:18Z</time>
      </trkpt>
      <trkpt lat="44.72868" lon="5.43867">
        <ele>820</ele>
        <time>2011-08-20T17:43:29Z</time>
      </trkpt>
      <trkpt lat="44.7286" lon="5.43912">
        <ele>816</ele>
        <time>2011-08-20T17:43:43Z</time>
      </trkpt>
      <trkpt lat="44.7283" lon="5.4397">
        <ele>804</ele>
        <time>2011-08-20T17:44:03Z</time>
      </trkpt>
      <trkpt lat="44.72814" lon="5.43982">
        <ele>803</ele>
        <time>2011-08-20T17:44:10Z</time>
      </trkpt>
      <trkpt lat="44.72781" lon="5.4399">
        <ele>804</ele>
        <time>2011-08-20T17:44:24Z</time>
      </trkpt>
      <trkpt lat="44.72757" lon="5.44008">
        <ele>794</ele>
        <time>2011-08-20T17:44:35Z</time>
      </trkpt>
      <trkpt lat="44.72732" lon="5.44022">
        <ele>792</ele>
        <time>2011-08-20T17:44:45Z</time>
      </trkpt>
      <trkpt lat="44.72719" lon="5.44035">
        <ele>790</ele>
        <time>2011-08-20T17:44:52Z</time>
      </trkpt>
      <trkpt lat="44.72693" lon="5.44053">
        <ele>788</ele>
        <time>2011-08-20T17:45:03Z</time>
      </trkpt>
      <trkpt lat="44.72671" lon="5.44059">
        <ele>786</ele>
        <time>2011-08-20T17:45:12Z</time>
      </trkpt>
      <trkpt lat="44.72646" lon="5.44085">
        <ele>775</ele>
        <time>2011-08-20T17:45:25Z</time>
      </trkpt>
      <trkpt lat="44.72633" lon="5.44108">
        <ele>772</ele>
        <time>2011-08-20T17:45:33Z</time>
      </trkpt>
      <trkpt lat="44.72613" lon="5.44129">
        <ele>770</ele>
        <time>2011-08-20T17:45:43Z</time>
      </trkpt>
      <trkpt lat="44.72593" lon="5.44139">
        <ele>767</ele>
        <time>2011-08-20T17:45:52Z</time>
      </trkpt>
      <trkpt lat="44.72559" lon="5.44177">
        <ele>753</ele>
        <time>2011-08-20T17:46:09Z</time>
      </trkpt>
      <trkpt lat="44.72544" lon="5.44178">
        <ele>753</ele>
        <time>2011-08-20T17:46:15Z</time>
      </trkpt>
      <trkpt lat="44.72499" lon="5.44207">
        <ele>753</ele>
        <time>2011-08-20T17:46:35Z</time>
      </trkpt>
      <trkpt lat="44.72474" lon="5.44218">
        <ele>750</ele>
        <time>2011-08-20T17:46:45Z</time>
      </trkpt>
      <trkpt lat="44.72411" lon="5.44213">
        <ele>754</ele>
        <time>2011-08-20T17:47:11Z</time>
      </trkpt>
      <trkpt lat="44.7239" lon="5.4424">
        <ele>749</ele>
        <time>2011-08-20T17:47:22Z</time>
      </trkpt>
      <trkpt lat="44.72372" lon="5.44252">
        <ele>734</ele>
        <time>2011-08-20T17:47:30Z</time>
      </trkpt>
      <trkpt lat="44.72335" lon="5.44271">
        <ele>735</ele>
        <time>2011-08-20T17:47:46Z</time>
      </trkpt>
      <trkpt lat="44.72317" lon="5.44289">
        <ele>728</ele>
        <time>2011-08-20T17:47:55Z</time>
      </trkpt>
      <trkpt lat="44.72304" lon="5.44315">
        <ele>724</ele>
        <time>2011-08-20T17:48:04Z</time>
      </trkpt>
      <trkpt lat="44.72298" lon="5.44332">
        <ele>723</ele>
        <time>2011-08-20T17:48:09Z</time>
      </trkpt>
      <trkpt lat="44.72279" lon="5.44333">
        <ele>712</ele>
        <time>2011-08-20T17:48:17Z</time>
      </trkpt>
      <trkpt lat="44.7226" lon="5.44325">
        <ele>717</ele>
        <time>2011-08-20T17:48:24Z</time>
      </trkpt>
      <trkpt lat="44.72245" lon="5.4431">
        <ele>715</ele>
        <time>2011-08-20T17:48:32Z</time>
      </trkpt>
      <trkpt lat="44.72227" lon="5.44298">
        <ele>716</ele>
        <time>2011-08-20T17:48:40Z</time>
      </trkpt>
      <trkpt lat="44.72202" lon="5.44305">
        <ele>712</ele>
        <time>2011-08-20T17:48:50Z</time>
      </trkpt>
      <trkpt lat="44.72166" lon="5.44324">
        <ele>694</ele>
        <time>2011-08-20T17:49:06Z</time>
      </trkpt>
      <trkpt lat="44.72127" lon="5.4433">
        <ele>691</ele>
        <time>2011-08-20T17:49:21Z</time>
      </trkpt>
      <trkpt lat="44.72114" lon="5.44318">
        <ele>690</ele>
        <time>2011-08-20T17:49:28Z</time>
      </trkpt>
      <trkpt lat="44.72098" lon="5.44284">
        <ele>690</ele>
        <time>2011-08-20T17:49:39Z</time>
      </trkpt>
      <trkpt lat="44.72063" lon="5.44293">
        <ele>695</ele>
        <time>2011-08-20T17:49:53Z</time>
      </trkpt>
      <trkpt lat="44.7205" lon="5.44324">
        <ele>696</ele>
        <time>2011-08-20T17:50:04Z</time>
      </trkpt>
      <trkpt lat="44.72038" lon="5.44341">
        <ele>698</ele>
        <time>2011-08-20T17:50:11Z</time>
      </trkpt>
      <trkpt lat="44.72031" lon="5.44382">
        <ele>699</ele>
        <time>2011-08-20T17:50:23Z</time>
      </trkpt>
      <trkpt lat="44.7203" lon="5.4443">
        <ele>699</ele>
        <time>2011-08-20T17:50:36Z</time>
      </trkpt>
      <trkpt lat="44.72037" lon="5.4447">
        <ele>698</ele>
        <time>2011-08-20T17:50:48Z</time>
      </trkpt>
      <trkpt lat="44.72063" lon="5.44498">
        <ele>697</ele>
        <time>2011-08-20T17:51:01Z</time>
      </trkpt>
      <trkpt lat="44.72069" lon="5.44501">
        <ele>698</ele>
        <time>2011-08-20T17:51:04Z</time>
      </trkpt>
      <trkpt lat="44.72074" lon="5.44527">
        <ele>700</ele>
        <time>2011-08-20T17:51:11Z</time>
      </trkpt>
      <trkpt lat="44.72095" lon="5.44552">
        <ele>706</ele>
        <time>2011-08-20T17:51:23Z</time>
      </trkpt>
      <trkpt lat="44.72137" lon="5.44578">
        <ele>709</ele>
        <time>2011-08-20T17:51:41Z</time>
      </trkpt>
      <trkpt lat="44.72143" lon="5.44589">
        <ele>715</ele>
        <time>2011-08-20T17:51:45Z</time>
      </trkpt>
      <trkpt lat="44.72141" lon="5.446">
        <ele>715</ele>
        <time>2011-08-20T17:51:48Z</time>
      </trkpt>
      <trkpt lat="44.72136" lon="5.44605">
        <ele>716</ele>
        <time>2011-08-20T17:51:50Z</time>
      </trkpt>
      <trkpt lat="44.72157" lon="5.44651">
        <ele>719</ele>
        <time>2011-08-20T17:52:06Z</time>
      </trkpt>
      <trkpt lat="44.72152" lon="5.44694">
        <ele>728</ele>
        <time>2011-08-20T17:52:18Z</time>
      </trkpt>
      <trkpt lat="44.72157" lon="5.44743">
        <ele>732</ele>
        <time>2011-08-20T17:52:32Z</time>
      </trkpt>
      <trkpt lat="44.72154" lon="5.44775">
        <ele>743</ele>
        <time>2011-08-20T17:52:42Z</time>
      </trkpt>
      <trkpt lat="44.72146" lon="5.44798">
        <ele>747</ele>
        <time>2011-08-20T17:52:49Z</time>
      </trkpt>
      <trkpt lat="44.72142" lon="5.44819">
        <ele>750</ele>
        <time>2011-08-20T17:52:55Z</time>
      </trkpt>
      <trkpt lat="44.72125" lon="5.44823">
        <ele>751</ele>
        <time>2011-08-20T17:53:02Z</time>
      </trkpt>
      <trkpt lat="44.72092" lon="5.44814">
        <ele>754</ele>
        <time>2011-08-20T17:53:15Z</time>
      </trkpt>
      <trkpt lat="44.72065" lon="5.44821">
        <ele>753</ele>
        <time>2011-08-20T17:53:26Z</time>
      </trkpt>
      <trkpt lat="44.72029" lon="5.44906">
        <ele>770</ele>
        <time>2011-08-20T17:53:54Z</time>
      </trkpt>
      <trkpt lat="44.72031" lon="5.44916">
        <ele>771</ele>
        <time>2011-08-20T17:53:57Z</time>
      </trkpt>
      <trkpt lat="44.72064" lon="5.44906">
        <ele>776</ele>
        <time>2011-08-20T17:54:11Z</time>
      </trkpt>
      <trkpt lat="44.72092" lon="5.44928">
        <ele>789</ele>
        <time>2011-08-20T17:54:24Z</time>
      </trkpt>
      <trkpt lat="44.72112" lon="5.44963">
        <ele>792</ele>
        <time>2011-08-20T17:54:36Z</time>
      </trkpt>
      <trkpt lat="44.72119" lon="5.45008">
        <ele>806</ele>
        <time>2011-08-20T17:54:50Z</time>
      </trkpt>
      <trkpt lat="44.72119" lon="5.45038">
        <ele>807</ele>
        <time>2011-08-20T17:54:58Z</time>
      </trkpt>
      <trkpt lat="44.72034" lon="5.45144">
        <ele>845</ele>
        <time>2011-08-20T17:55:43Z</time>
      </trkpt>
      <trkpt lat="44.72027" lon="5.45173">
        <ele>854</ele>
      </trkpt>
      <trkpt lat="44.72009" lon="5.45181">
        <ele>858</ele>
      </trkpt>
      <trkpt lat="44.71964" lon="5.45169">
        <ele>867</ele>
        <time>2011-08-20T17:56:13Z</time>
      </trkpt>
      <trkpt lat="44.71946" lon="5.45189">
        <ele>868</ele>
        <time>2011-08-20T17:56:22Z</time>
      </trkpt>
      <trkpt lat="44.71915" lon="5.45273">
        <ele>886</ele>
      </trkpt>
      <trkpt lat="44.71933" lon="5.45306">
        <ele>896</ele>
      </trkpt>
      <trkpt lat="44.71929" lon="5.45335">
        <ele>914</ele>
      </trkpt>
      <trkpt lat="44.71947" lon="5.4537">
        <ele>920</ele>
        <time>2011-08-20T17:57:21Z</time>
      </trkpt>
      <trkpt lat="44.71968" lon="5.45435">
        <ele>947</ele>
      </trkpt>
      <trkpt lat="44.71944" lon="5.45449">
        <ele>954</ele>
      </trkpt>
      <trkpt lat="44.71957" lon="5.45521">
        <ele>988</ele>
      </trkpt>
      <trkpt lat="44.72038" lon="5.45685">
        <ele>1029</ele>
        <time>2011-08-20T17:58:58Z</time>
      </trkpt>
      <trkpt lat="44.72063" lon="5.45816">
        <ele>1064</ele>
        <time>2011-08-20T17:59:36Z</time>
      </trkpt>
      <trkpt lat="44.72092" lon="5.45895">
        <ele>1076</ele>
        <time>2011-08-20T18:00:02Z</time>
      </trkpt>
      <trkpt lat="44.72131" lon="5.45964">
        <ele>1101</ele>
        <time>2011-08-20T18:00:27Z</time>
      </trkpt>
      <trkpt lat="44.72176" lon="5.46007">
        <ele>1117</ele>
        <time>2011-08-20T18:00:49Z</time>
      </trkpt>
      <trkpt lat="44.72195" lon="5.46028">
        <ele>1120</ele>
        <time>2011-08-20T18:00:58Z</time>
      </trkpt>
      <trkpt lat="44.72187" lon="5.46066">
        <ele>1124</ele>
        <time>2011-08-20T18:01:09Z</time>
      </trkpt>
      <trkpt lat="44.72126" lon="5.46065">
        <ele>1121</ele>
        <time>2011-08-20T18:01:34Z</time>
      </trkpt>
      <trkpt lat="44.72045" lon="5.4606">
        <ele>1116</ele>
        <time>2011-08-20T18:02:06Z</time>
      </trkpt>
      <trkpt lat="44.71995" lon="5.46019">
        <ele>1117</ele>
        <time>2011-08-20T18:02:30Z</time>
      </trkpt>
      <trkpt lat="44.71926" lon="5.46">
        <ele>1124</ele>
        <time>2011-08-20T18:02:58Z</time>
      </trkpt>
      <trkpt lat="44.71831" lon="5.45927">
        <ele>1125</ele>
        <time>2011-08-20T18:03:41Z</time>
      </trkpt>
      <trkpt lat="44.71772" lon="5.45921">
        <ele>1125</ele>
      </trkpt>
      <trkpt lat="44.71742" lon="5.45951">
        <ele>1129</ele>
        <time>2011-08-20T18:04:18Z</time>
      </trkpt>
      <trkpt lat="44.71704" lon="5.45969">
        <ele>1130</ele>
        <time>2011-08-20T18:04:34Z</time>
      </trkpt>
      <trkpt lat="44.7168" lon="5.45973">
        <ele>1131</ele>
        <time>2011-08-20T18:04:43Z</time>
      </trkpt>
      <trkpt lat="44.71649" lon="5.45987">
        <ele>1140</ele>
        <time>2011-08-20T18:04:56Z</time>
      </trkpt>
      <trkpt lat="44.71611" lon="5.46024">
        <ele>1126</ele>
        <time>2011-08-20T18:05:15Z</time>
      </trkpt>
      <trkpt lat="44.71537" lon="5.46041">
        <ele>1130</ele>
        <time>2011-08-20T18:05:45Z</time>
      </trkpt>
      <trkpt lat="44.71499" lon="5.46038">
        <ele>1131</ele>
        <time>2011-08-20T18:06:00Z</time>
      </trkpt>
      <trkpt lat="44.71464" lon="5.46024">
        <ele>1133</ele>
        <time>2011-08-20T18:06:15Z</time>
      </trkpt>
      <trkpt lat="44.71408" lon="5.46003">
        <ele>1142</ele>
        <time>2011-08-20T18:06:38Z</time>
      </trkpt>
      <trkpt lat="44.71353" lon="5.45999">
        <ele>1156</ele>
        <time>2011-08-20T18:07:00Z</time>
      </trkpt>
      <trkpt lat="44.71282" lon="5.46029">
        <ele>1151</ele>
        <time>2011-08-20T18:07:30Z</time>
      </trkpt>
      <trkpt lat="44.71224" lon="5.46044">
        <ele>1160</ele>
        <time>2011-08-20T18:07:53Z</time>
      </trkpt>
      <trkpt lat="44.71137" lon="5.46092">
        <ele>1146</ele>
        <time>2011-08-20T18:08:30Z</time>
      </trkpt>
      <trkpt lat="44.71079" lon="5.46121">
        <ele>1149</ele>
        <time>2011-08-20T18:08:55Z</time>
      </trkpt>
      <trkpt lat="44.71024" lon="5.46126">
        <ele>1148</ele>
        <time>2011-08-20T18:09:17Z</time>
      </trkpt>
      <trkpt lat="44.7093" lon="5.4612">
        <ele>1146</ele>
        <time>2011-08-20T18:09:55Z</time>
      </trkpt>
      <trkpt lat="44.70879" lon="5.46104">
        <ele>1144</ele>
        <time>2011-08-20T18:10:16Z</time>
      </trkpt>
      <trkpt lat="44.70856" lon="5.46085">
        <ele>1146</ele>
        <time>2011-08-20T18:10:26Z</time>
      </trkpt>
      <trkpt lat="44.70824" lon="5.4608">
        <ele>1160</ele>
        <time>2011-08-20T18:10:39Z</time>
      </trkpt>
      <trkpt lat="44.70773" lon="5.46087">
        <ele>1150</ele>
        <time>2011-08-20T18:11:00Z</time>
      </trkpt>
      <trkpt lat="44.7068" lon="5.46142">
        <ele>1150</ele>
        <time>2011-08-20T18:11:40Z</time>
      </trkpt>
      <trkpt lat="44.70621" lon="5.46172">
        <ele>1154</ele>
        <time>2011-08-20T18:12:05Z</time>
      </trkpt>
      <trkpt lat="44.70579" lon="5.46227">
        <ele>1158</ele>
        <time>2011-08-20T18:12:28Z</time>
      </trkpt>
      <trkpt lat="44.70513" lon="5.46288">
        <ele>1141</ele>
      </trkpt>
      <trkpt lat="44.70446" lon="5.4633">
        <ele>1124</ele>
        <time>2011-08-20T18:13:32Z</time>
      </trkpt>
      <trkpt lat="44.70446" lon="5.46237">
        <ele>1129</ele>
        <time>2011-08-20T18:13:58Z</time>
      </trkpt>
      <trkpt lat="44.70441" lon="5.46103">
        <ele>1129</ele>
        <time>2011-08-20T18:14:36Z</time>
      </trkpt>
      <trkpt lat="44.70413" lon="5.45887">
        <ele>1090</ele>
        <time>2011-08-20T18:15:39Z</time>
      </trkpt>
      <trkpt lat="44.70407" lon="5.45867">
        <ele>1091</ele>
        <time>2011-08-20T18:15:45Z</time>
      </trkpt>
      <trkpt lat="44.70362" lon="5.45784">
        <ele>1076</ele>
      </trkpt>
      <trkpt lat="44.70374" lon="5.45888">
        <ele>1077</ele>
        <time>2011-08-20T18:17:24Z</time>
      </trkpt>
      <trkpt lat="44.70367" lon="5.45962">
        <ele>1070</ele>
        <time>2011-08-20T18:17:45Z</time>
      </trkpt>
      <trkpt lat="44.70354" lon="5.46038">
        <ele>1067</ele>
        <time>2011-08-20T18:18:07Z</time>
      </trkpt>
      <trkpt lat="44.70293" lon="5.46259">
        <ele>1032</ele>
        <time>2011-08-20T18:19:15Z</time>
      </trkpt>
      <trkpt lat="44.70284" lon="5.46141">
        <ele>1017</ele>
        <time>2011-08-20T18:19:49Z</time>
      </trkpt>
      <trkpt lat="44.70288" lon="5.46104">
        <ele>1017</ele>
        <time>2011-08-20T18:19:59Z</time>
      </trkpt>
      <trkpt lat="44.70273" lon="5.46069">
        <ele>1006</ele>
        <time>2011-08-20T18:20:11Z</time>
      </trkpt>
      <trkpt lat="44.70267" lon="5.46029">
        <ele>1004</ele>
        <time>2011-08-20T18:20:23Z</time>
      </trkpt>
      <trkpt lat="44.70272" lon="5.45975">
        <ele>1001</ele>
        <time>2011-08-20T18:20:38Z</time>
      </trkpt>
      <trkpt lat="44.70266" lon="5.45966">
        <ele>1000</ele>
        <time>2011-08-20T18:20:42Z</time>
      </trkpt>
      <trkpt lat="44.70225" lon="5.46045">
        <ele>959</ele>
        <time>2011-08-20T18:21:10Z</time>
      </trkpt>
      <trkpt lat="44.70208" lon="5.46083">
        <ele>955</ele>
        <time>2011-08-20T18:21:22Z</time>
      </trkpt>
      <trkpt lat="44.70188" lon="5.46136">
        <ele>957</ele>
        <time>2011-08-20T18:21:40Z</time>
      </trkpt>
      <trkpt lat="44.70182" lon="5.46181">
        <ele>959</ele>
        <time>2011-08-20T18:21:53Z</time>
      </trkpt>
      <trkpt lat="44.70152" lon="5.46279">
        <ele>939</ele>
        <time>2011-08-20T18:22:23Z</time>
      </trkpt>
      <trkpt lat="44.70129" lon="5.46346">
        <ele>944</ele>
        <time>2011-08-20T18:22:44Z</time>
      </trkpt>
      <trkpt lat="44.70041" lon="5.46457">
        <ele>912</ele>
        <time>2011-08-20T18:23:31Z</time>
      </trkpt>
      <trkpt lat="44.69985" lon="5.46518">
        <ele>893</ele>
        <time>2011-08-20T18:23:59Z</time>
      </trkpt>
      <trkpt lat="44.69963" lon="5.46549">
        <ele>893</ele>
        <time>2011-08-20T18:24:12Z</time>
      </trkpt>
      <trkpt lat="44.69911" lon="5.46583">
        <ele>878</ele>
        <time>2011-08-20T18:24:35Z</time>
      </trkpt>
      <trkpt lat="44.69877" lon="5.46671">
        <ele>869</ele>
        <time>2011-08-20T18:25:04Z</time>
      </trkpt>
      <trkpt lat="44.69866" lon="5.46698">
        <ele>865</ele>
        <time>2011-08-20T18:25:12Z</time>
      </trkpt>
      <trkpt lat="44.6986" lon="5.46735">
        <ele>862</ele>
        <time>2011-08-20T18:25:23Z</time>
      </trkpt>
      <trkpt lat="44.69845" lon="5.46799">
        <ele>868</ele>
        <time>2011-08-20T18:25:42Z</time>
      </trkpt>
      <trkpt lat="44.69843" lon="5.46844">
        <ele>864</ele>
        <time>2011-08-20T18:25:55Z</time>
      </trkpt>
      <trkpt lat="44.69861" lon="5.46926">
        <ele>866</ele>
        <time>2011-08-20T18:26:20Z</time>
      </trkpt>
      <trkpt lat="44.69862" lon="5.47003">
        <ele>853</ele>
        <time>2011-08-20T18:26:42Z</time>
      </trkpt>
      <trkpt lat="44.69855" lon="5.47068">
        <ele>848</ele>
        <time>2011-08-20T18:27:00Z</time>
      </trkpt>
      <trkpt lat="44.69894" lon="5.47254">
        <ele>835</ele>
        <time>2011-08-20T18:27:56Z</time>
      </trkpt>
      <trkpt lat="44.69896" lon="5.47324">
        <ele>830</ele>
        <time>2011-08-20T18:28:15Z</time>
      </trkpt>
      <trkpt lat="44.69865" lon="5.47412">
        <ele>811</ele>
        <time>2011-08-20T18:28:43Z</time>
      </trkpt>
      <trkpt lat="44.69817" lon="5.47493">
        <ele>783</ele>
        <time>2011-08-20T18:29:13Z</time>
      </trkpt>
      <trkpt lat="44.69797" lon="5.47571">
        <ele>775</ele>
        <time>2011-08-20T18:29:37Z</time>
      </trkpt>
      <trkpt lat="44.69764" lon="5.47645">
        <ele>757</ele>
        <time>2011-08-20T18:30:02Z</time>
      </trkpt>
      <trkpt lat="44.69748" lon="5.47697">
        <ele>727</ele>
        <time>2011-08-20T18:30:18Z</time>
      </trkpt>
      <trkpt lat="44.69724" lon="5.47793">
        <ele>705</ele>
        <time>2011-08-20T18:30:47Z</time>
      </trkpt>
      <trkpt lat="44.69705" lon="5.47873">
        <ele>687</ele>
        <time>2011-08-20T18:31:11Z</time>
      </trkpt>
      <trkpt lat="44.69721" lon="5.47885">
        <ele>687</ele>
        <time>2011-08-20T18:31:18Z</time>
      </trkpt>
      <trkpt lat="44.69766" lon="5.47871">
        <ele>686</ele>
        <time>2011-08-20T18:31:36Z</time>
      </trkpt>
      <trkpt lat="44.69874" lon="5.47887">
        <ele>681</ele>
        <time>2011-08-20T18:32:20Z</time>
      </trkpt>
      <trkpt lat="44.69909" lon="5.47915">
        <ele>676</ele>
        <time>2011-08-20T18:32:36Z</time>
      </trkpt>
      <trkpt lat="44.69915" lon="5.47944">
        <ele>655</ele>
        <time>2011-08-20T18:32:45Z</time>
      </trkpt>
      <trkpt lat="44.69905" lon="5.47963">
        <ele>648</ele>
        <time>2011-08-20T18:32:51Z</time>
      </trkpt>
      <trkpt lat="44.69934" lon="5.47974">
        <ele>654</ele>
        <time>2011-08-20T18:33:03Z</time>
      </trkpt>
      <trkpt lat="44.69978" lon="5.4798">
        <ele>656</ele>
        <time>2011-08-20T18:33:21Z</time>
      </trkpt>
      <trkpt lat="44.70002" lon="5.48036">
        <ele>655</ele>
      </trkpt>
      <trkpt lat="44.69923" lon="5.48064">
        <ele>646</ele>
        <time>2011-08-20T18:35:03Z</time>
      </trkpt>
      <trkpt lat="44.69811" lon="5.48137">
        <ele>622</ele>
        <time>2011-08-20T18:35:52Z</time>
      </trkpt>
      <trkpt lat="44.69786" lon="5.48172">
        <ele>622</ele>
        <time>2011-08-20T18:36:06Z</time>
      </trkpt>
      <trkpt lat="44.69764" lon="5.48225">
        <ele>619</ele>
        <time>2011-08-20T18:36:24Z</time>
      </trkpt>
      <trkpt lat="44.69755" lon="5.48278">
        <ele>625</ele>
        <time>2011-08-20T18:36:39Z</time>
      </trkpt>
      <trkpt lat="44.69737" lon="5.48333">
        <ele>612</ele>
        <time>2011-08-20T18:36:57Z</time>
      </trkpt>
      <trkpt lat="44.69715" lon="5.48352">
        <ele>612</ele>
        <time>2011-08-20T18:37:07Z</time>
      </trkpt>
      <trkpt lat="44.69664" lon="5.48375">
        <ele>600</ele>
        <time>2011-08-20T18:37:28Z</time>
      </trkpt>
      <trkpt lat="44.69647" lon="5.48393">
        <ele>601</ele>
        <time>2011-08-20T18:37:37Z</time>
      </trkpt>
      <trkpt lat="44.69605" lon="5.48476">
        <ele>600</ele>
        <time>2011-08-20T18:38:06Z</time>
      </trkpt>
      <trkpt lat="44.69575" lon="5.48504">
        <ele>592</ele>
        <time>2011-08-20T18:38:20Z</time>
      </trkpt>
      <trkpt lat="44.69544" lon="5.48514">
        <ele>589</ele>
        <time>2011-08-20T18:38:33Z</time>
      </trkpt>
      <trkpt lat="44.69508" lon="5.48515">
        <ele>587</ele>
        <time>2011-08-20T18:38:47Z</time>
      </trkpt>
    </trkseg>
  </trk>
</gpx>